sensor_id;sensor_type;location;lat;lon;timestamp;P1;durP1;ratioP1;P2;durP2;ratioP2
10653;SDS011;5375;51.250;6.776;2024-02-21T00:00:47;4.20;;;2.30;;
10653;SDS011;5375;51.250;6.776;2024-02-21T00:03:13;4.80;;;2.67;;
10653;SDS011;5375;51.250;6.776;2024-02-21T00:05:38;5.33;;;2.23;;
10653;SDS011;5375;51.250;6.776;2024-02-21T00:08:05;4.57;;;2.67;;
10653;SDS011;5375;51.250;6.776;2024-02-21T00:10:30;4.63;;;2.40;;
10653;SDS011;5375;51.250;6.776;2024-02-21T00:13:00;5.20;;;2.40;;
10653;SDS011;5375;51.250;6.776;2024-02-21T00:15:25;4.83;;;2.43;;
10653;SDS011;5375;51.250;6.776;2024-02-21T00:17:51;6.83;;;2.77;;
10653;SDS011;5375;51.250;6.776;2024-02-21T00:20:17;4.77;;;2.60;;
10653;SDS011;5375;51.250;6.776;2024-02-21T00:22:43;6.60;;;2.53;;
10653;SDS011;5375;51.250;6.776;2024-02-21T00:25:09;5.17;;;2.27;;
10653;SDS011;5375;51.250;6.776;2024-02-21T00:27:35;7.17;;;2.90;;
10653;SDS011;5375;51.250;6.776;2024-02-21T00:30:03;5.77;;;2.70;;
10653;SDS011;5375;51.250;6.776;2024-02-21T00:32:29;5.03;;;2.50;;
10653;SDS011;5375;51.250;6.776;2024-02-21T00:34:55;3.60;;;2.27;;
10653;SDS011;5375;51.250;6.776;2024-02-21T00:37:21;4.90;;;2.50;;
10653;SDS011;5375;51.250;6.776;2024-02-21T00:39:47;4.17;;;2.60;;
10653;SDS011;5375;51.250;6.776;2024-02-21T00:42:13;5.60;;;2.67;;
10653;SDS011;5375;51.250;6.776;2024-02-21T00:44:39;6.27;;;2.67;;
10653;SDS011;5375;51.250;6.776;2024-02-21T00:47:04;7.10;;;2.83;;
10653;SDS011;5375;51.250;6.776;2024-02-21T00:49:30;5.87;;;2.63;;
10653;SDS011;5375;51.250;6.776;2024-02-21T00:51:56;5.60;;;2.60;;
10653;SDS011;5375;51.250;6.776;2024-02-21T00:54:22;4.60;;;2.47;;
10653;SDS011;5375;51.250;6.776;2024-02-21T00:56:48;5.03;;;2.57;;
10653;SDS011;5375;51.250;6.776;2024-02-21T00:59:14;4.60;;;2.70;;
10653;SDS011;5375;51.250;6.776;2024-02-21T01:01:40;6.23;;;2.50;;
10653;SDS011;5375;51.250;6.776;2024-02-21T01:04:11;5.93;;;2.67;;
10653;SDS011;5375;51.250;6.776;2024-02-21T01:06:37;6.50;;;2.80;;
10653;SDS011;5375;51.250;6.776;2024-02-21T01:09:03;6.43;;;2.93;;
10653;SDS011;5375;51.250;6.776;2024-02-21T01:11:29;5.00;;;2.50;;
10653;SDS011;5375;51.250;6.776;2024-02-21T01:13:55;4.77;;;2.60;;
10653;SDS011;5375;51.250;6.776;2024-02-21T01:16:21;5.17;;;2.67;;
10653;SDS011;5375;51.250;6.776;2024-02-21T01:18:47;4.63;;;2.27;;
10653;SDS011;5375;51.250;6.776;2024-02-21T01:21:13;13.73;;;2.90;;
10653;SDS011;5375;51.250;6.776;2024-02-21T01:23:39;9.60;;;2.50;;
10653;SDS011;5375;51.250;6.776;2024-02-21T01:26:05;7.27;;;2.93;;
10653;SDS011;5375;51.250;6.776;2024-02-21T01:28:33;8.43;;;2.83;;
10653;SDS011;5375;51.250;6.776;2024-02-21T01:30:59;7.90;;;3.03;;
10653;SDS011;5375;51.250;6.776;2024-02-21T01:33:25;6.53;;;2.47;;
10653;SDS011;5375;51.250;6.776;2024-02-21T01:35:51;5.20;;;2.63;;
10653;SDS011;5375;51.250;6.776;2024-02-21T01:38:16;5.83;;;2.80;;
10653;SDS011;5375;51.250;6.776;2024-02-21T01:40:42;7.60;;;2.80;;
10653;SDS011;5375;51.250;6.776;2024-02-21T01:43:17;6.60;;;2.70;;
10653;SDS011;5375;51.250;6.776;2024-02-21T01:45:54;4.50;;;2.60;;
10653;SDS011;5375;51.250;6.776;2024-02-21T01:48:24;7.33;;;3.20;;
10653;SDS011;5375;51.250;6.776;2024-02-21T01:50:50;5.47;;;3.03;;
10653;SDS011;5375;51.250;6.776;2024-02-21T01:53:25;6.17;;;2.60;;
10653;SDS011;5375;51.250;6.776;2024-02-21T01:55:55;7.10;;;3.00;;
10653;SDS011;5375;51.250;6.776;2024-02-21T01:58:21;8.53;;;2.73;;
10653;SDS011;5375;51.250;6.776;2024-02-21T02:00:47;7.53;;;2.57;;
10653;SDS011;5375;51.250;6.776;2024-02-21T02:03:13;5.47;;;2.40;;
10653;SDS011;5375;51.250;6.776;2024-02-21T02:05:42;5.03;;;2.43;;
10653;SDS011;5375;51.250;6.776;2024-02-21T02:08:09;5.97;;;2.57;;
10653;SDS011;5375;51.250;6.776;2024-02-21T02:10:36;5.33;;;2.43;;
10653;SDS011;5375;51.250;6.776;2024-02-21T02:13:02;5.30;;;2.33;;
10653;SDS011;5375;51.250;6.776;2024-02-21T02:15:37;5.00;;;2.53;;
10653;SDS011;5375;51.250;6.776;2024-02-21T02:18:07;5.20;;;2.50;;
10653;SDS011;5375;51.250;6.776;2024-02-21T02:20:34;7.03;;;2.57;;
10653;SDS011;5375;51.250;6.776;2024-02-21T02:23:00;4.70;;;2.30;;
10653;SDS011;5375;51.250;6.776;2024-02-21T02:25:35;3.47;;;2.07;;
10653;SDS011;5375;51.250;6.776;2024-02-21T02:28:02;8.10;;;2.97;;
10653;SDS011;5375;51.250;6.776;2024-02-21T02:30:28;9.60;;;2.60;;
10653;SDS011;5375;51.250;6.776;2024-02-21T02:32:55;4.53;;;2.43;;
10653;SDS011;5375;51.250;6.776;2024-02-21T02:35:21;5.40;;;2.50;;
10653;SDS011;5375;51.250;6.776;2024-02-21T02:37:50;9.00;;;2.63;;
10653;SDS011;5375;51.250;6.776;2024-02-21T02:40:16;4.43;;;2.30;;
10653;SDS011;5375;51.250;6.776;2024-02-21T02:42:41;5.13;;;2.43;;
10653;SDS011;5375;51.250;6.776;2024-02-21T02:45:08;6.23;;;2.23;;
10653;SDS011;5375;51.250;6.776;2024-02-21T02:47:34;6.13;;;2.47;;
10653;SDS011;5375;51.250;6.776;2024-02-21T02:50:00;4.87;;;2.77;;
10653;SDS011;5375;51.250;6.776;2024-02-21T02:52:26;3.67;;;2.10;;
10653;SDS011;5375;51.250;6.776;2024-02-21T02:54:52;4.00;;;2.10;;
10653;SDS011;5375;51.250;6.776;2024-02-21T02:57:20;6.80;;;2.40;;
10653;SDS011;5375;51.250;6.776;2024-02-21T02:59:50;4.13;;;2.00;;
10653;SDS011;5375;51.250;6.776;2024-02-21T03:02:16;5.10;;;2.53;;
10653;SDS011;5375;51.250;6.776;2024-02-21T03:04:43;5.33;;;2.47;;
10653;SDS011;5375;51.250;6.776;2024-02-21T03:07:08;4.37;;;2.50;;
10653;SDS011;5375;51.250;6.776;2024-02-21T03:09:36;4.47;;;2.20;;
10653;SDS011;5375;51.250;6.776;2024-02-21T03:12:02;4.07;;;2.17;;
10653;SDS011;5375;51.250;6.776;2024-02-21T03:14:28;3.63;;;2.10;;
10653;SDS011;5375;51.250;6.776;2024-02-21T03:16:54;4.97;;;2.40;;
10653;SDS011;5375;51.250;6.776;2024-02-21T03:19:20;5.97;;;2.60;;
10653;SDS011;5375;51.250;6.776;2024-02-21T03:21:47;4.40;;;2.13;;
10653;SDS011;5375;51.250;6.776;2024-02-21T03:24:14;4.67;;;2.33;;
10653;SDS011;5375;51.250;6.776;2024-02-21T03:26:41;7.93;;;2.60;;
10653;SDS011;5375;51.250;6.776;2024-02-21T03:29:07;4.13;;;2.23;;
10653;SDS011;5375;51.250;6.776;2024-02-21T03:31:34;5.13;;;2.30;;
10653;SDS011;5375;51.250;6.776;2024-02-21T03:34:00;4.33;;;2.30;;
10653;SDS011;5375;51.250;6.776;2024-02-21T03:36:26;5.47;;;2.37;;
10653;SDS011;5375;51.250;6.776;2024-02-21T03:38:52;5.93;;;2.23;;
10653;SDS011;5375;51.250;6.776;2024-02-21T03:41:18;5.23;;;2.30;;
10653;SDS011;5375;51.250;6.776;2024-02-21T03:43:44;6.63;;;2.40;;
10653;SDS011;5375;51.250;6.776;2024-02-21T03:46:10;4.93;;;2.50;;
10653;SDS011;5375;51.250;6.776;2024-02-21T03:48:35;4.87;;;2.40;;
10653;SDS011;5375;51.250;6.776;2024-02-21T03:51:02;3.87;;;2.10;;
10653;SDS011;5375;51.250;6.776;2024-02-21T03:53:30;4.00;;;2.10;;
10653;SDS011;5375;51.250;6.776;2024-02-21T03:55:56;3.10;;;2.07;;
10653;SDS011;5375;51.250;6.776;2024-02-21T03:58:27;4.33;;;2.20;;
10653;SDS011;5375;51.250;6.776;2024-02-21T04:00:53;5.17;;;2.30;;
10653;SDS011;5375;51.250;6.776;2024-02-21T04:03:19;4.03;;;2.20;;
10653;SDS011;5375;51.250;6.776;2024-02-21T04:05:45;8.10;;;2.13;;
10653;SDS011;5375;51.250;6.776;2024-02-21T04:08:11;3.57;;;1.93;;
10653;SDS011;5375;51.250;6.776;2024-02-21T04:10:37;5.47;;;2.40;;
10653;SDS011;5375;51.250;6.776;2024-02-21T04:13:03;5.13;;;2.20;;
10653;SDS011;5375;51.250;6.776;2024-02-21T04:15:31;3.87;;;2.00;;
10653;SDS011;5375;51.250;6.776;2024-02-21T04:17:57;4.03;;;2.20;;
10653;SDS011;5375;51.250;6.776;2024-02-21T04:20:23;4.10;;;2.10;;
10653;SDS011;5375;51.250;6.776;2024-02-21T04:22:49;3.93;;;2.30;;
10653;SDS011;5375;51.250;6.776;2024-02-21T04:25:15;4.10;;;2.10;;
10653;SDS011;5375;51.250;6.776;2024-02-21T04:27:41;3.97;;;2.00;;
10653;SDS011;5375;51.250;6.776;2024-02-21T04:30:07;4.80;;;2.27;;
10653;SDS011;5375;51.250;6.776;2024-02-21T04:32:34;5.53;;;2.40;;
10653;SDS011;5375;51.250;6.776;2024-02-21T04:35:00;4.73;;;2.33;;
10653;SDS011;5375;51.250;6.776;2024-02-21T04:37:26;3.70;;;2.20;;
10653;SDS011;5375;51.250;6.776;2024-02-21T04:39:52;3.73;;;2.10;;
10653;SDS011;5375;51.250;6.776;2024-02-21T04:42:18;5.67;;;2.27;;
10653;SDS011;5375;51.250;6.776;2024-02-21T04:44:44;4.07;;;2.30;;
10653;SDS011;5375;51.250;6.776;2024-02-21T04:47:11;6.13;;;2.37;;
10653;SDS011;5375;51.250;6.776;2024-02-21T04:49:38;3.27;;;2.00;;
10653;SDS011;5375;51.250;6.776;2024-02-21T04:52:04;5.43;;;2.30;;
10653;SDS011;5375;51.250;6.776;2024-02-21T04:54:30;5.60;;;2.50;;
10653;SDS011;5375;51.250;6.776;2024-02-21T04:56:55;4.73;;;2.37;;
10653;SDS011;5375;51.250;6.776;2024-02-21T04:59:21;4.57;;;2.23;;
10653;SDS011;5375;51.250;6.776;2024-02-21T05:01:47;3.93;;;1.93;;
10653;SDS011;5375;51.250;6.776;2024-02-21T05:04:13;6.17;;;2.30;;
10653;SDS011;5375;51.250;6.776;2024-02-21T05:06:41;5.57;;;2.17;;
10653;SDS011;5375;51.250;6.776;2024-02-21T05:09:09;4.63;;;2.20;;
10653;SDS011;5375;51.250;6.776;2024-02-21T05:11:35;5.43;;;2.40;;
10653;SDS011;5375;51.250;6.776;2024-02-21T05:14:02;5.13;;;2.43;;
10653;SDS011;5375;51.250;6.776;2024-02-21T05:16:29;6.43;;;2.43;;
10653;SDS011;5375;51.250;6.776;2024-02-21T05:18:55;5.50;;;2.60;;
10653;SDS011;5375;51.250;6.776;2024-02-21T05:21:22;5.20;;;2.33;;
10653;SDS011;5375;51.250;6.776;2024-02-21T05:23:48;4.30;;;2.03;;
10653;SDS011;5375;51.250;6.776;2024-02-21T05:26:21;8.57;;;2.70;;
10653;SDS011;5375;51.250;6.776;2024-02-21T05:28:48;4.57;;;2.00;;
10653;SDS011;5375;51.250;6.776;2024-02-21T05:31:15;7.70;;;2.40;;
10653;SDS011;5375;51.250;6.776;2024-02-21T05:33:41;4.17;;;2.00;;
10653;SDS011;5375;51.250;6.776;2024-02-21T05:36:07;5.20;;;1.97;;
10653;SDS011;5375;51.250;6.776;2024-02-21T05:38:33;4.57;;;2.03;;
10653;SDS011;5375;51.250;6.776;2024-02-21T05:40:58;4.30;;;2.07;;
10653;SDS011;5375;51.250;6.776;2024-02-21T05:43:24;4.17;;;1.97;;
10653;SDS011;5375;51.250;6.776;2024-02-21T05:45:50;11.33;;;2.07;;
10653;SDS011;5375;51.250;6.776;2024-02-21T05:48:16;7.20;;;2.47;;
10653;SDS011;5375;51.250;6.776;2024-02-21T05:50:41;5.93;;;2.07;;
10653;SDS011;5375;51.250;6.776;2024-02-21T05:53:07;4.67;;;2.10;;
10653;SDS011;5375;51.250;6.776;2024-02-21T05:55:35;5.13;;;1.90;;
10653;SDS011;5375;51.250;6.776;2024-02-21T05:58:00;5.70;;;2.00;;
10653;SDS011;5375;51.250;6.776;2024-02-21T06:00:27;3.47;;;1.80;;
10653;SDS011;5375;51.250;6.776;2024-02-21T06:02:53;6.33;;;2.33;;
10653;SDS011;5375;51.250;6.776;2024-02-21T06:05:19;5.00;;;1.90;;
10653;SDS011;5375;51.250;6.776;2024-02-21T06:07:45;6.07;;;1.93;;
10653;SDS011;5375;51.250;6.776;2024-02-21T06:10:11;3.27;;;1.70;;
10653;SDS011;5375;51.250;6.776;2024-02-21T06:12:37;4.87;;;2.00;;
10653;SDS011;5375;51.250;6.776;2024-02-21T06:15:03;4.50;;;2.03;;
10653;SDS011;5375;51.250;6.776;2024-02-21T06:17:29;5.80;;;1.70;;
10653;SDS011;5375;51.250;6.776;2024-02-21T06:19:55;4.03;;;1.97;;
10653;SDS011;5375;51.250;6.776;2024-02-21T06:22:21;3.87;;;1.87;;
10653;SDS011;5375;51.250;6.776;2024-02-21T06:24:47;3.30;;;1.70;;
10653;SDS011;5375;51.250;6.776;2024-02-21T06:27:13;7.07;;;2.20;;
10653;SDS011;5375;51.250;6.776;2024-02-21T06:29:41;3.67;;;1.90;;
10653;SDS011;5375;51.250;6.776;2024-02-21T06:32:07;3.57;;;1.77;;
10653;SDS011;5375;51.250;6.776;2024-02-21T06:34:33;4.17;;;1.97;;
10653;SDS011;5375;51.250;6.776;2024-02-21T06:36:59;5.90;;;2.10;;
10653;SDS011;5375;51.250;6.776;2024-02-21T06:39:25;6.53;;;1.97;;
10653;SDS011;5375;51.250;6.776;2024-02-21T06:41:51;5.30;;;1.70;;
10653;SDS011;5375;51.250;6.776;2024-02-21T06:44:17;4.23;;;2.10;;
10653;SDS011;5375;51.250;6.776;2024-02-21T06:46:43;4.90;;;2.20;;
10653;SDS011;5375;51.250;6.776;2024-02-21T06:49:09;3.73;;;2.20;;
10653;SDS011;5375;51.250;6.776;2024-02-21T06:51:41;4.70;;;1.93;;
10653;SDS011;5375;51.250;6.776;2024-02-21T06:54:07;5.40;;;2.20;;
10653;SDS011;5375;51.250;6.776;2024-02-21T06:56:32;3.47;;;1.80;;
10653;SDS011;5375;51.250;6.776;2024-02-21T06:58:58;2.63;;;1.73;;
10653;SDS011;5375;51.250;6.776;2024-02-21T07:01:24;3.97;;;1.47;;
10653;SDS011;5375;51.250;6.776;2024-02-21T07:03:49;3.90;;;1.70;;
10653;SDS011;5375;51.250;6.776;2024-02-21T07:06:15;4.20;;;1.77;;
10653;SDS011;5375;51.250;6.776;2024-02-21T07:08:41;2.93;;;1.80;;
10653;SDS011;5375;51.250;6.776;2024-02-21T07:11:07;5.40;;;2.03;;
10653;SDS011;5375;51.250;6.776;2024-02-21T07:13:33;4.00;;;2.10;;
10653;SDS011;5375;51.250;6.776;2024-02-21T07:15:59;3.77;;;1.80;;
10653;SDS011;5375;51.250;6.776;2024-02-21T07:18:25;4.47;;;1.87;;
10653;SDS011;5375;51.250;6.776;2024-02-21T07:20:51;6.17;;;2.10;;
10653;SDS011;5375;51.250;6.776;2024-02-21T07:23:17;5.40;;;1.67;;
10653;SDS011;5375;51.250;6.776;2024-02-21T07:25:43;6.77;;;2.10;;
10653;SDS011;5375;51.250;6.776;2024-02-21T07:28:09;2.93;;;1.47;;
10653;SDS011;5375;51.250;6.776;2024-02-21T07:30:35;5.20;;;1.93;;
10653;SDS011;5375;51.250;6.776;2024-02-21T07:33:01;3.90;;;1.70;;
10653;SDS011;5375;51.250;6.776;2024-02-21T07:35:27;2.63;;;1.63;;
10653;SDS011;5375;51.250;6.776;2024-02-21T07:37:53;3.87;;;1.83;;
10653;SDS011;5375;51.250;6.776;2024-02-21T07:40:19;5.03;;;1.83;;
10653;SDS011;5375;51.250;6.776;2024-02-21T07:42:44;3.60;;;1.60;;
10653;SDS011;5375;51.250;6.776;2024-02-21T07:45:10;2.70;;;1.60;;
10653;SDS011;5375;51.250;6.776;2024-02-21T07:47:36;3.00;;;1.60;;
10653;SDS011;5375;51.250;6.776;2024-02-21T07:50:03;3.53;;;1.90;;
10653;SDS011;5375;51.250;6.776;2024-02-21T07:52:29;4.70;;;1.83;;
10653;SDS011;5375;51.250;6.776;2024-02-21T07:54:55;3.87;;;1.60;;
10653;SDS011;5375;51.250;6.776;2024-02-21T07:57:21;4.97;;;1.70;;
10653;SDS011;5375;51.250;6.776;2024-02-21T07:59:47;3.80;;;1.50;;
10653;SDS011;5375;51.250;6.776;2024-02-21T08:02:16;2.33;;;1.43;;
10653;SDS011;5375;51.250;6.776;2024-02-21T08:04:42;3.13;;;1.40;;
10653;SDS011;5375;51.250;6.776;2024-02-21T08:07:08;3.30;;;1.57;;
10653;SDS011;5375;51.250;6.776;2024-02-21T08:09:34;3.03;;;1.50;;
10653;SDS011;5375;51.250;6.776;2024-02-21T08:12:02;4.77;;;1.67;;
10653;SDS011;5375;51.250;6.776;2024-02-21T08:14:28;2.93;;;1.53;;
10653;SDS011;5375;51.250;6.776;2024-02-21T08:16:54;2.90;;;1.50;;
10653;SDS011;5375;51.250;6.776;2024-02-21T08:19:20;2.90;;;1.60;;
10653;SDS011;5375;51.250;6.776;2024-02-21T08:21:47;3.43;;;1.40;;
10653;SDS011;5375;51.250;6.776;2024-02-21T08:24:13;4.13;;;1.63;;
10653;SDS011;5375;51.250;6.776;2024-02-21T08:26:42;3.50;;;1.53;;
10653;SDS011;5375;51.250;6.776;2024-02-21T08:29:09;4.27;;;1.67;;
10653;SDS011;5375;51.250;6.776;2024-02-21T08:31:35;3.53;;;1.50;;
10653;SDS011;5375;51.250;6.776;2024-02-21T08:34:01;5.83;;;1.80;;
10653;SDS011;5375;51.250;6.776;2024-02-21T08:36:29;2.83;;;1.60;;
10653;SDS011;5375;51.250;6.776;2024-02-21T08:38:55;2.70;;;1.37;;
10653;SDS011;5375;51.250;6.776;2024-02-21T08:41:21;2.57;;;1.40;;
10653;SDS011;5375;51.250;6.776;2024-02-21T08:43:49;3.00;;;1.60;;
10653;SDS011;5375;51.250;6.776;2024-02-21T08:46:15;3.23;;;1.57;;
10653;SDS011;5375;51.250;6.776;2024-02-21T08:48:41;3.00;;;1.30;;
10653;SDS011;5375;51.250;6.776;2024-02-21T08:51:07;2.50;;;1.50;;
10653;SDS011;5375;51.250;6.776;2024-02-21T08:53:33;2.70;;;1.40;;
10653;SDS011;5375;51.250;6.776;2024-02-21T08:55:59;2.43;;;1.53;;
10653;SDS011;5375;51.250;6.776;2024-02-21T08:58:24;2.20;;;1.40;;
10653;SDS011;5375;51.250;6.776;2024-02-21T09:00:51;3.27;;;1.80;;
10653;SDS011;5375;51.250;6.776;2024-02-21T09:03:17;2.80;;;1.40;;
10653;SDS011;5375;51.250;6.776;2024-02-21T09:05:45;4.13;;;1.60;;
10653;SDS011;5375;51.250;6.776;2024-02-21T09:08:11;2.87;;;1.63;;
10653;SDS011;5375;51.250;6.776;2024-02-21T09:10:39;3.80;;;1.53;;
10653;SDS011;5375;51.250;6.776;2024-02-21T09:13:05;2.97;;;1.37;;
10653;SDS011;5375;51.250;6.776;2024-02-21T09:15:32;4.20;;;1.40;;
10653;SDS011;5375;51.250;6.776;2024-02-21T09:17:58;2.90;;;1.17;;
10653;SDS011;5375;51.250;6.776;2024-02-21T09:20:24;1.93;;;1.37;;
10653;SDS011;5375;51.250;6.776;2024-02-21T09:22:50;3.43;;;1.60;;
10653;SDS011;5375;51.250;6.776;2024-02-21T09:25:17;2.07;;;1.30;;
10653;SDS011;5375;51.250;6.776;2024-02-21T09:27:44;3.83;;;1.30;;
10653;SDS011;5375;51.250;6.776;2024-02-21T09:30:10;2.97;;;1.57;;
10653;SDS011;5375;51.250;6.776;2024-02-21T09:32:36;3.40;;;1.50;;
10653;SDS011;5375;51.250;6.776;2024-02-21T09:35:02;3.03;;;1.43;;
10653;SDS011;5375;51.250;6.776;2024-02-21T09:37:28;4.20;;;1.70;;
10653;SDS011;5375;51.250;6.776;2024-02-21T09:39:54;3.43;;;1.53;;
10653;SDS011;5375;51.250;6.776;2024-02-21T09:42:21;3.67;;;1.40;;
10653;SDS011;5375;51.250;6.776;2024-02-21T09:44:47;2.63;;;1.43;;
10653;SDS011;5375;51.250;6.776;2024-02-21T09:47:22;2.53;;;1.30;;
10653;SDS011;5375;51.250;6.776;2024-02-21T09:49:56;2.83;;;1.20;;
10653;SDS011;5375;51.250;6.776;2024-02-21T09:52:23;2.63;;;1.50;;
10653;SDS011;5375;51.250;6.776;2024-02-21T09:54:50;4.50;;;1.67;;
10653;SDS011;5375;51.250;6.776;2024-02-21T09:57:18;3.57;;;1.40;;
10653;SDS011;5375;51.250;6.776;2024-02-21T09:59:44;3.13;;;1.33;;
10653;SDS011;5375;51.250;6.776;2024-02-21T10:02:11;5.10;;;1.37;;
10653;SDS011;5375;51.250;6.776;2024-02-21T10:04:37;5.13;;;1.43;;
10653;SDS011;5375;51.250;6.776;2024-02-21T10:07:05;3.40;;;1.60;;
10653;SDS011;5375;51.250;6.776;2024-02-21T10:09:31;3.17;;;1.50;;
10653;SDS011;5375;51.250;6.776;2024-02-21T10:12:08;3.33;;;1.43;;
10653;SDS011;5375;51.250;6.776;2024-02-21T10:14:34;3.47;;;1.70;;
10653;SDS011;5375;51.250;6.776;2024-02-21T10:17:00;4.37;;;1.17;;
10653;SDS011;5375;51.250;6.776;2024-02-21T10:19:27;2.63;;;1.60;;
10653;SDS011;5375;51.250;6.776;2024-02-21T10:22:06;3.87;;;1.40;;
10653;SDS011;5375;51.250;6.776;2024-02-21T10:24:33;4.83;;;1.27;;
10653;SDS011;5375;51.250;6.776;2024-02-21T10:27:02;5.10;;;1.57;;
10653;SDS011;5375;51.250;6.776;2024-02-21T10:29:29;2.17;;;1.30;;
10653;SDS011;5375;51.250;6.776;2024-02-21T10:34:36;1.87;;;1.10;;
10653;SDS011;5375;51.250;6.776;2024-02-21T10:37:03;2.20;;;1.30;;
10653;SDS011;5375;51.250;6.776;2024-02-21T10:39:39;2.47;;;1.30;;
10653;SDS011;5375;51.250;6.776;2024-02-21T10:42:05;2.30;;;1.33;;
10653;SDS011;5375;51.250;6.776;2024-02-21T10:44:33;3.00;;;1.30;;
10653;SDS011;5375;51.250;6.776;2024-02-21T10:47:01;3.87;;;1.37;;
10653;SDS011;5375;51.250;6.776;2024-02-21T10:49:32;1.60;;;1.10;;
10653;SDS011;5375;51.250;6.776;2024-02-21T10:52:06;2.40;;;1.43;;
10653;SDS011;5375;51.250;6.776;2024-02-21T10:54:44;2.80;;;1.20;;
10653;SDS011;5375;51.250;6.776;2024-02-21T10:57:15;3.20;;;1.40;;
10653;SDS011;5375;51.250;6.776;2024-02-21T10:59:44;1.83;;;1.10;;
10653;SDS011;5375;51.250;6.776;2024-02-21T11:02:10;4.77;;;1.57;;
10653;SDS011;5375;51.250;6.776;2024-02-21T11:04:36;2.17;;;1.43;;
10653;SDS011;5375;51.250;6.776;2024-02-21T11:07:05;2.33;;;1.10;;
10653;SDS011;5375;51.250;6.776;2024-02-21T11:09:32;4.47;;;1.57;;
10653;SDS011;5375;51.250;6.776;2024-02-21T11:11:58;1.77;;;1.00;;
10653;SDS011;5375;51.250;6.776;2024-02-21T11:14:29;2.40;;;1.30;;
10653;SDS011;5375;51.250;6.776;2024-02-21T11:17:01;4.37;;;1.20;;
10653;SDS011;5375;51.250;6.776;2024-02-21T11:19:28;2.07;;;1.30;;
10653;SDS011;5375;51.250;6.776;2024-02-21T11:21:56;5.83;;;2.10;;
10653;SDS011;5375;51.250;6.776;2024-02-21T11:24:25;12.77;;;2.50;;
10653;SDS011;5375;51.250;6.776;2024-02-21T11:26:55;16.77;;;3.87;;
10653;SDS011;5375;51.250;6.776;2024-02-21T11:29:25;16.87;;;3.50;;
10653;SDS011;5375;51.250;6.776;2024-02-21T11:31:51;21.90;;;4.30;;
10653;SDS011;5375;51.250;6.776;2024-02-21T11:34:17;25.60;;;5.10;;
10653;SDS011;5375;51.250;6.776;2024-02-21T11:36:47;14.13;;;3.67;;
10653;SDS011;5375;51.250;6.776;2024-02-21T11:39:32;20.70;;;4.67;;
10653;SDS011;5375;51.250;6.776;2024-02-21T11:44:31;18.27;;;4.97;;
10653;SDS011;5375;51.250;6.776;2024-02-21T11:46:57;17.20;;;4.23;;
10653;SDS011;5375;51.250;6.776;2024-02-21T11:49:24;13.70;;;4.97;;
10653;SDS011;5375;51.250;6.776;2024-02-21T11:51:57;19.20;;;4.70;;
10653;SDS011;5375;51.250;6.776;2024-02-21T11:54:29;17.37;;;4.70;;
10653;SDS011;5375;51.250;6.776;2024-02-21T11:56:55;20.20;;;4.43;;
10653;SDS011;5375;51.250;6.776;2024-02-21T11:59:20;20.93;;;4.77;;
10653;SDS011;5375;51.250;6.776;2024-02-21T12:01:47;20.43;;;4.47;;
10653;SDS011;5375;51.250;6.776;2024-02-21T12:04:13;17.17;;;4.37;;
10653;SDS011;5375;51.250;6.776;2024-02-21T12:06:42;19.60;;;4.83;;
10653;SDS011;5375;51.250;6.776;2024-02-21T12:09:09;18.83;;;4.40;;
10653;SDS011;5375;51.250;6.776;2024-02-21T12:11:35;18.77;;;4.30;;
10653;SDS011;5375;51.250;6.776;2024-02-21T12:14:01;24.20;;;4.63;;
10653;SDS011;5375;51.250;6.776;2024-02-21T12:16:29;19.07;;;4.30;;
10653;SDS011;5375;51.250;6.776;2024-02-21T12:18:58;16.57;;;4.60;;
10653;SDS011;5375;51.250;6.776;2024-02-21T12:21:32;20.73;;;4.30;;
10653;SDS011;5375;51.250;6.776;2024-02-21T12:24:11;17.70;;;4.00;;
10653;SDS011;5375;51.250;6.776;2024-02-21T12:26:38;15.30;;;4.47;;
10653;SDS011;5375;51.250;6.776;2024-02-21T12:29:03;14.47;;;4.40;;
10653;SDS011;5375;51.250;6.776;2024-02-21T12:31:29;14.27;;;4.27;;
10653;SDS011;5375;51.250;6.776;2024-02-21T12:33:56;15.43;;;3.77;;
10653;SDS011;5375;51.250;6.776;2024-02-21T12:36:22;16.43;;;3.83;;
10653;SDS011;5375;51.250;6.776;2024-02-21T12:38:48;13.13;;;4.00;;
10653;SDS011;5375;51.250;6.776;2024-02-21T12:41:15;16.90;;;4.27;;
10653;SDS011;5375;51.250;6.776;2024-02-21T12:43:41;19.57;;;4.23;;
10653;SDS011;5375;51.250;6.776;2024-02-21T12:46:07;11.53;;;3.87;;
10653;SDS011;5375;51.250;6.776;2024-02-21T12:48:33;19.30;;;4.20;;
10653;SDS011;5375;51.250;6.776;2024-02-21T12:50:59;16.47;;;3.70;;
10653;SDS011;5375;51.250;6.776;2024-02-21T12:53:25;15.00;;;4.13;;
10653;SDS011;5375;51.250;6.776;2024-02-21T12:55:50;14.90;;;4.30;;
10653;SDS011;5375;51.250;6.776;2024-02-21T12:58:17;15.17;;;4.13;;
10653;SDS011;5375;51.250;6.776;2024-02-21T13:00:42;15.03;;;3.77;;
10653;SDS011;5375;51.250;6.776;2024-02-21T13:03:09;12.57;;;3.70;;
10653;SDS011;5375;51.250;6.776;2024-02-21T13:05:38;9.90;;;3.30;;
10653;SDS011;5375;51.250;6.776;2024-02-21T13:08:04;14.37;;;3.87;;
10653;SDS011;5375;51.250;6.776;2024-02-21T13:10:31;13.70;;;3.77;;
10653;SDS011;5375;51.250;6.776;2024-02-21T13:12:59;11.03;;;3.60;;
10653;SDS011;5375;51.250;6.776;2024-02-21T13:15:25;14.97;;;3.83;;
10653;SDS011;5375;51.250;6.776;2024-02-21T13:17:51;11.13;;;3.50;;
10653;SDS011;5375;51.250;6.776;2024-02-21T13:20:16;16.53;;;3.90;;
10653;SDS011;5375;51.250;6.776;2024-02-21T13:22:42;12.20;;;3.47;;
10653;SDS011;5375;51.250;6.776;2024-02-21T13:25:07;13.33;;;3.60;;
10653;SDS011;5375;51.250;6.776;2024-02-21T13:27:34;9.60;;;3.40;;
10653;SDS011;5375;51.250;6.776;2024-02-21T13:30:00;12.63;;;3.80;;
10653;SDS011;5375;51.250;6.776;2024-02-21T13:32:28;12.43;;;3.90;;
10653;SDS011;5375;51.250;6.776;2024-02-21T13:34:54;16.57;;;3.70;;
10653;SDS011;5375;51.250;6.776;2024-02-21T13:37:20;10.73;;;3.43;;
10653;SDS011;5375;51.250;6.776;2024-02-21T13:39:46;16.43;;;3.90;;
10653;SDS011;5375;51.250;6.776;2024-02-21T13:42:12;9.33;;;2.87;;
10653;SDS011;5375;51.250;6.776;2024-02-21T13:44:38;11.50;;;3.13;;
10653;SDS011;5375;51.250;6.776;2024-02-21T13:47:04;11.33;;;3.40;;
10653;SDS011;5375;51.250;6.776;2024-02-21T13:49:33;8.03;;;2.83;;
10653;SDS011;5375;51.250;6.776;2024-02-21T13:51:59;11.47;;;3.70;;
10653;SDS011;5375;51.250;6.776;2024-02-21T13:54:25;9.97;;;3.30;;
10653;SDS011;5375;51.250;6.776;2024-02-21T13:56:50;8.30;;;3.00;;
10653;SDS011;5375;51.250;6.776;2024-02-21T13:59:16;7.87;;;3.20;;
10653;SDS011;5375;51.250;6.776;2024-02-21T14:01:43;8.37;;;3.13;;
10653;SDS011;5375;51.250;6.776;2024-02-21T14:04:09;8.57;;;2.80;;
10653;SDS011;5375;51.250;6.776;2024-02-21T14:06:35;9.87;;;2.73;;
10653;SDS011;5375;51.250;6.776;2024-02-21T14:09:02;9.90;;;3.60;;
10653;SDS011;5375;51.250;6.776;2024-02-21T14:11:28;9.77;;;2.90;;
10653;SDS011;5375;51.250;6.776;2024-02-21T14:13:55;9.80;;;2.97;;
10653;SDS011;5375;51.250;6.776;2024-02-21T14:16:22;11.07;;;3.20;;
10653;SDS011;5375;51.250;6.776;2024-02-21T14:18:48;7.53;;;2.87;;
10653;SDS011;5375;51.250;6.776;2024-02-21T14:21:14;7.33;;;3.00;;
10653;SDS011;5375;51.250;6.776;2024-02-21T14:23:40;11.60;;;2.60;;
10653;SDS011;5375;51.250;6.776;2024-02-21T14:26:05;9.07;;;2.80;;
10653;SDS011;5375;51.250;6.776;2024-02-21T14:28:32;8.93;;;2.63;;
10653;SDS011;5375;51.250;6.776;2024-02-21T14:31:00;8.33;;;2.90;;
10653;SDS011;5375;51.250;6.776;2024-02-21T14:33:28;6.67;;;2.83;;
10653;SDS011;5375;51.250;6.776;2024-02-21T14:35:55;9.30;;;2.67;;
10653;SDS011;5375;51.250;6.776;2024-02-21T14:38:21;9.47;;;3.20;;
10653;SDS011;5375;51.250;6.776;2024-02-21T14:40:47;7.00;;;2.33;;
10653;SDS011;5375;51.250;6.776;2024-02-21T14:43:13;7.37;;;3.17;;
10653;SDS011;5375;51.250;6.776;2024-02-21T14:45:39;8.70;;;2.70;;
10653;SDS011;5375;51.250;6.776;2024-02-21T14:48:05;9.00;;;2.80;;
10653;SDS011;5375;51.250;6.776;2024-02-21T14:50:31;6.67;;;2.73;;
10653;SDS011;5375;51.250;6.776;2024-02-21T14:52:57;8.80;;;2.40;;
10653;SDS011;5375;51.250;6.776;2024-02-21T14:55:23;7.23;;;2.90;;
10653;SDS011;5375;51.250;6.776;2024-02-21T14:57:49;9.00;;;2.40;;
10653;SDS011;5375;51.250;6.776;2024-02-21T15:00:15;5.77;;;2.37;;
10653;SDS011;5375;51.250;6.776;2024-02-21T15:02:41;5.73;;;2.33;;